createdAt,value
2022-11-10T00:02:31.545Z,21.43
2022-11-10T00:05:45.520Z,21.97
2022-11-10T00:09:48.658Z,21.17
2022-11-10T00:12:35.783Z,20.50
2022-11-10T00:15:40.243Z,21.77
2022-11-10T00:27:25.580Z,20.00
2022-11-10T00:30:16.735Z,20.60
2022-11-10T00:33:03.232Z,20.00
2022-11-10T00:35:50.414Z,20.57
2022-11-10T00:38:37.230Z,20.67
2022-11-10T00:41:24.340Z,18.63
2022-11-10T00:45:07.201Z,22.47
2022-11-10T00:49:33.507Z,20.83
2022-11-10T00:52:20.024Z,21.20
2022-11-10T00:55:07.483Z,22.37
2022-11-10T00:58:22.439Z,21.87
2022-11-10T01:01:11.152Z,22.00
2022-11-10T01:04:47.818Z,20.53
2022-11-10T01:07:40.399Z,20.47
2022-11-10T01:10:27.700Z,20.80
2022-11-10T01:14:30.720Z,23.80
2022-11-10T01:17:19.011Z,21.23
2022-11-10T01:20:34.777Z,18.70
2022-11-10T01:23:21.841Z,20.57
2022-11-10T01:26:35.274Z,23.10
2022-11-10T01:30:43.713Z,21.63
2022-11-10T01:33:32.292Z,18.83
2022-11-10T01:36:19.051Z,20.27
2022-11-10T01:39:06.141Z,19.10
2022-11-10T01:43:11.736Z,20.07
2022-11-10T01:47:40.479Z,19.30
2022-11-10T01:50:34.560Z,17.67
2022-11-10T01:53:24.981Z,17.90
2022-11-10T01:56:13.227Z,18.80
2022-11-10T01:59:02.472Z,18.00
2022-11-10T02:02:43.905Z,19.17
2022-11-10T02:05:32.280Z,18.90
2022-11-10T02:08:19.868Z,18.00
2022-11-10T02:11:37.231Z,18.17
2022-11-10T02:14:24.180Z,19.90
2022-11-10T02:17:37.499Z,17.43
2022-11-10T02:20:24.311Z,17.73
2022-11-10T02:27:30.815Z,18.27
2022-11-10T02:30:18.278Z,20.00
2022-11-10T02:33:30.336Z,19.80
2022-11-10T02:36:17.308Z,19.40
2022-11-10T02:39:55.351Z,18.10
2022-11-10T02:44:22.541Z,19.20
2022-11-10T02:47:10.458Z,18.80
2022-11-10T02:49:57.057Z,19.50
2022-11-10T02:53:37.190Z,19.23
2022-11-10T02:58:05.546Z,22.10
2022-11-10T03:01:44.944Z,19.13
2022-11-10T03:13:59.923Z,17.30
2022-11-10T03:17:18.322Z,21.17
2022-11-10T03:20:06.217Z,19.93
2022-11-10T03:22:53.088Z,21.40
2022-11-10T03:26:08.255Z,20.83
2022-11-10T03:30:36.578Z,18.43
2022-11-10T03:38:45.875Z,20.30
2022-11-10T03:41:39.909Z,17.87
2022-11-10T04:16:55.477Z,17.23
2022-11-10T04:21:21.548Z,17.50
2022-11-10T04:24:59.000Z,17.80
2022-11-10T04:42:53.718Z,16.33
2022-11-10T04:47:25.251Z,18.30
2022-11-10T04:50:13.334Z,17.07
2022-11-10T04:53:00.423Z,16.80
2022-11-10T04:57:01.915Z,18.40
2022-11-10T05:01:30.655Z,17.97
2022-11-10T05:04:17.386Z,17.50
2022-11-10T05:13:31.659Z,19.70
2022-11-10T05:16:19.690Z,18.80
2022-11-10T05:25:40.759Z,19.80
2022-11-10T05:35:01.673Z,17.67
2022-11-10T05:37:50.115Z,19.67
2022-11-10T05:40:37.160Z,18.70
2022-11-10T05:58:35.991Z,17.67
2022-11-10T06:03:04.119Z,16.03
2022-11-10T06:10:24.791Z,16.30
2022-11-10T06:13:38.002Z,17.17
2022-11-10T06:16:24.737Z,16.00
2022-11-10T06:19:13.978Z,16.33
2022-11-10T06:43:42.092Z,15.43
2022-11-10T06:48:10.746Z,17.13
2022-11-10T06:51:24.584Z,18.80
2022-11-10T06:54:15.896Z,23.50
2022-11-10T06:57:33.000Z,23.53
2022-11-10T07:02:00.513Z,25.27
2022-11-10T07:04:51.772Z,29.67
2022-11-10T07:07:45.800Z,24.50
2022-11-10T07:10:33.298Z,23.17
2022-11-10T07:13:46.566Z,22.13
2022-11-10T07:16:33.475Z,22.20
2022-11-10T07:19:48.663Z,21.67
2022-11-10T07:22:36.307Z,21.83
2022-11-10T07:26:14.780Z,19.13
2022-11-10T07:30:42.489Z,21.07
2022-11-10T07:33:31.016Z,20.60
2022-11-10T07:37:34.375Z,21.17
2022-11-10T07:45:21.120Z,25.70
2022-11-10T07:56:48.587Z,23.87
2022-11-10T08:01:17.049Z,23.97
2022-11-10T08:04:31.702Z,24.50
2022-11-10T08:07:21.889Z,24.17
2022-11-10T08:11:02.321Z,22.57
2022-11-10T08:15:30.937Z,22.67
2022-11-10T08:18:29.672Z,19.83
2022-11-10T08:21:27.870Z,19.40
2022-11-10T08:24:16.170Z,20.70
2022-11-10T08:27:03.247Z,21.40
2022-11-10T08:29:51.841Z,22.17
2022-11-10T08:32:40.029Z,19.40
2022-11-10T08:36:17.737Z,18.53
2022-11-10T08:39:06.489Z,18.93
2022-11-10T08:41:56.243Z,17.87
2022-11-10T08:44:43.799Z,18.37
2022-11-10T08:47:35.039Z,19.77
2022-11-10T08:50:49.929Z,17.50
2022-11-10T08:53:37.273Z,17.33
2022-11-10T08:56:26.788Z,17.87
2022-11-10T08:59:13.561Z,17.57
2022-11-10T09:02:00.367Z,16.93
2022-11-10T09:04:48.400Z,19.30
2022-11-10T09:07:38.016Z,18.07
2022-11-10T09:10:52.180Z,16.70
2022-11-10T09:13:42.161Z,16.30
2022-11-10T09:41:44.147Z,18.73
2022-11-10T09:46:20.327Z,19.30
2022-11-10T10:09:53.877Z,23.03
2022-11-10T10:14:23.208Z,20.27
2022-11-10T10:27:30.417Z,20.50
2022-11-10T10:32:02.228Z,21.73
2022-11-10T10:45:22.098Z,20.97
2022-11-10T10:59:15.222Z,22.47
2022-11-10T11:02:05.414Z,21.53
2022-11-10T11:14:16.909Z,23.20
2022-11-10T11:22:19.396Z,21.70
2022-11-10T11:26:21.320Z,24.97
2022-11-10T11:30:02.142Z,22.37
2022-11-10T11:34:31.039Z,25.10
2022-11-10T12:00:27.053Z,22.60
2022-11-10T12:04:18.758Z,26.37
2022-11-10T12:07:41.236Z,25.57
2022-11-10T12:11:46.480Z,21.77
2022-11-10T12:46:59.888Z,19.37
2022-11-10T12:50:40.951Z,19.07
2022-11-10T13:03:57.590Z,19.03
2022-11-10T13:07:13.671Z,19.97
2022-11-10T13:14:49.963Z,20.10
2022-11-10T13:19:02.024Z,21.00
2022-11-10T13:22:10.592Z,19.47
2022-11-10T13:26:11.138Z,21.67
2022-11-10T13:53:55.209Z,20.03
2022-11-10T14:06:25.707Z,22.03
2022-11-10T14:09:20.765Z,21.00
2022-11-10T14:12:17.073Z,20.87
2022-11-10T14:15:06.860Z,22.60
2022-11-10T14:17:55.152Z,20.93
2022-11-10T14:20:43.745Z,21.00
2022-11-10T14:23:36.174Z,22.70
2022-11-10T14:26:27.272Z,21.00
2022-11-10T14:30:07.142Z,22.50
2022-11-10T14:42:23.221Z,20.70
2022-11-10T14:49:23.085Z,20.73
2022-11-10T14:53:48.868Z,23.27
2022-11-10T15:00:51.973Z,23.00
2022-11-10T15:10:16.316Z,24.03
2022-11-10T15:13:59.452Z,29.43
2022-11-10T15:21:06.210Z,26.17
2022-11-10T15:29:34.888Z,27.67
2022-11-10T15:32:59.442Z,25.93
2022-11-10T15:35:49.204Z,25.40
2022-11-10T15:40:24.004Z,26.90
2022-11-10T15:44:52.363Z,26.13
2022-11-10T15:47:39.730Z,30.67
2022-11-10T15:56:17.371Z,29.10
2022-11-10T16:00:43.307Z,24.73
2022-11-10T16:03:56.821Z,28.00
2022-11-10T16:08:26.536Z,24.57
2022-11-10T16:11:43.405Z,26.67
2022-11-10T16:16:12.274Z,28.93
2022-11-10T16:18:59.210Z,26.87
2022-11-10T16:23:27.370Z,24.37
2022-11-10T16:26:18.856Z,22.00
2022-11-10T16:39:15.545Z,28.03
2022-11-10T16:47:25.326Z,30.53
2022-11-10T16:51:58.944Z,30.07
2022-11-10T16:59:14.670Z,26.27
2022-11-10T17:03:43.725Z,24.00
2022-11-10T17:06:32.079Z,25.23
2022-11-10T17:10:15.271Z,27.03
2022-11-10T17:14:43.254Z,35.13
2022-11-10T17:27:08.223Z,27.90
2022-11-10T17:34:24.434Z,33.23
2022-11-10T17:43:04.805Z,37.33
2022-11-10T17:47:33.748Z,40.27
2022-11-10T18:10:21.278Z,44.63
2022-11-10T18:23:12.704Z,33.60
2022-11-10T18:27:36.436Z,31.97
2022-11-10T18:49:22.376Z,26.37
2022-11-10T18:53:51.861Z,26.07
2022-11-10T19:01:09.081Z,24.10
2022-11-10T19:04:29.160Z,23.10
2022-11-10T19:08:56.717Z,25.50
2022-11-10T19:12:36.432Z,26.03
2022-11-10T19:17:03.797Z,20.67
2022-11-10T19:40:10.003Z,20.77
2022-11-10T19:43:03.124Z,21.93
2022-11-10T19:52:12.613Z,26.60
2022-11-10T20:09:26.046Z,33.67
2022-11-10T20:22:01.643Z,35.30
2022-11-10T20:26:29.990Z,37.13
2022-11-10T20:35:03.379Z,35.30
2022-11-10T20:37:54.728Z,39.90
